Time;durP1;ratioP1;P1;durP2;ratioP2;P2;SDS_P1;SDS_P2;PMS_P1;PMS_P2;Temp;Humidity;BMP_temperature;BMP_pressure;BME280_temperature;BME280_humidity;BME280_pressure;Samples;Min_cycle;Max_cycle;Signal;HPM_P1;HPM_P2
2022/12/12 00:02:30;;;;;;;13.55;7.78;;;;;;;;;;8341566;28;20029;-61
2022/12/12 00:06:31;;;;;;;12.13;6.85;;;;;;;;;;8343380;28;21007;-63
2022/12/12 00:10:31;;;;;;;12.43;7.35;;;;;;;;;;8341672;28;20009;-61
2022/12/12 00:14:31;;;;;;;11.32;7.03;;;;;;;;;;8341673;28;20121;-62
2022/12/12 00:18:32;;;;;;;12.95;7.78;;;;;;;;;;8341264;28;20033;-62
2022/12/12 00:22:32;;;;;;;11.77;7.07;;;;;;;;;;8342429;28;20963;-61
2022/12/12 00:26:33;;;;;;;11.38;6.80;;;;;;;;;;8342725;28;20056;-61
2022/12/12 00:30:33;;;;;;;15.45;6.75;;;;;;;;;;8340932;28;20044;-61
2022/12/12 00:34:34;;;;;;;10.18;6.75;;;;;;;;;;8341699;28;20043;-61
2022/12/12 00:38:34;;;;;;;13.45;6.82;;;;;;;;;;8341778;28;20036;-61
2022/12/12 00:42:34;;;;;;;10.93;6.97;;;;;;;;;;8341673;28;20035;-61
2022/12/12 00:46:34;;;;;;;10.57;6.20;;;;;;;;;;8341753;28;20288;-61
2022/12/12 00:50:34;;;;;;;10.13;6.07;;;;;;;;;;8342130;28;20025;-61
2022/12/12 00:54:35;;;;;;;9.93;5.85;;;;;;;;;;8339943;28;20275;-61
2022/12/12 00:58:35;;;;;;;7.93;5.45;;;;;;;;;;8340707;28;20025;-61
2022/12/12 01:02:35;;;;;;;8.03;5.20;;;;;;;;;;8341201;28;20028;-61
2022/12/12 01:06:35;;;;;;;9.20;5.63;;;;;;;;;;8339268;28;20373;-61
2022/12/12 01:10:36;;;;;;;9.48;6.00;;;;;;;;;;8339575;28;20270;-61
2022/12/12 01:14:36;;;;;;;8.65;5.60;;;;;;;;;;8346387;28;20024;-62
2022/12/12 01:18:37;;;;;;;9.15;5.63;;;;;;;;;;8339486;28;20029;-61
2022/12/12 01:22:37;;;;;;;11.18;5.75;;;;;;;;;;8342658;28;20036;-61
2022/12/12 01:26:38;;;;;;;7.03;4.97;;;;;;;;;;8340208;28;20028;-61
2022/12/12 01:30:38;;;;;;;8.27;4.93;;;;;;;;;;8341245;28;20279;-62
2022/12/12 01:34:38;;;;;;;8.60;5.20;;;;;;;;;;8339755;28;20028;-61
2022/12/12 01:38:38;;;;;;;6.45;4.32;;;;;;;;;;8341043;28;20282;-61
2022/12/12 01:42:39;;;;;;;9.32;5.25;;;;;;;;;;8339151;28;20099;-62
2022/12/12 01:46:41;;;;;;;8.13;4.88;;;;;;;;;;8336884;28;20041;-61
2022/12/12 01:50:42;;;;;;;8.25;5.03;;;;;;;;;;8338602;28;20025;-61
2022/12/12 01:54:44;;;;;;;8.50;5.60;;;;;;;;;;8338850;28;20028;-62
2022/12/12 01:58:46;;;;;;;13.07;7.10;;;;;;;;;;8338183;28;20098;-61
2022/12/12 02:02:46;;;;;;;14.05;7.40;;;;;;;;;;8339924;28;20033;-62
2022/12/12 02:06:47;;;;;;;12.70;7.53;;;;;;;;;;8338408;28;20024;-61
2022/12/12 02:10:48;;;;;;;13.80;7.57;;;;;;;;;;8337781;28;20028;-62
2022/12/12 02:14:50;;;;;;;16.17;8.65;;;;;;;;;;8339578;28;20039;-62
2022/12/12 02:18:50;;;;;;;17.13;8.93;;;;;;;;;;8336219;28;20148;-61
2022/12/12 02:22:51;;;;;;;16.35;9.13;;;;;;;;;;8339037;28;20469;-61
2022/12/12 02:26:51;;;;;;;16.02;8.98;;;;;;;;;;8336738;28;20052;-62
2022/12/12 02:31:12;;;;;;;18.75;9.73;;;;;;;;;;8339761;28;20043;-61
2022/12/12 02:35:31;;;;;;;20.73;10.45;;;;;;;;;;8338887;28;20063;-62
2022/12/12 02:39:34;;;;;;;17.13;9.50;;;;;;;;;;8339273;28;20052;-61
2022/12/12 02:43:55;;;;;;;18.55;10.13;;;;;;;;;;8337048;28;20032;-62
2022/12/12 02:48:28;;;;;;;17.45;10.05;;;;;;;;;;8338052;28;20048;-61
2022/12/12 02:52:28;;;;;;;17.52;9.65;;;;;;;;;;8314938;28;21197;-62
2022/12/12 02:56:41;;;;;;;14.82;8.95;;;;;;;;;;8336990;28;20121;-62
2022/12/12 03:00:51;;;;;;;15.85;9.23;;;;;;;;;;8338103;28;20033;-61
2022/12/12 03:09:42;;;;;;;16.40;8.35;;;;;;;;;;8342343;28;20062;-62
2022/12/12 03:13:45;;;;;;;20.30;10.05;;;;;;;;;;8345565;28;20052;-61
2022/12/12 03:17:49;;;;;;;17.80;9.48;;;;;;;;;;8342899;28;20031;-61
2022/12/12 03:21:55;;;;;;;19.05;9.77;;;;;;;;;;8347304;28;20024;-61
2022/12/12 03:26:18;;;;;;;16.52;9.65;;;;;;;;;;8343202;28;20029;-62
2022/12/12 03:30:19;;;;;;;16.58;9.02;;;;;;;;;;8336733;28;20028;-61
2022/12/12 03:34:22;;;;;;;17.20;9.70;;;;;;;;;;8344883;28;20021;-62
2022/12/12 03:38:24;;;;;;;17.17;9.03;;;;;;;;;;8343207;28;20056;-61
2022/12/12 03:42:37;;;;;;;25.92;10.05;;;;;;;;;;8344448;28;20282;-61
2022/12/12 03:46:39;;;;;;;18.35;8.95;;;;;;;;;;8340141;28;20043;-61
2022/12/12 03:50:43;;;;;;;18.85;8.80;;;;;;;;;;8343212;28;20633;-62
2022/12/12 03:54:52;;;;;;;17.90;9.27;;;;;;;;;;8343535;28;20347;-61
2022/12/12 03:58:55;;;;;;;20.20;10.00;;;;;;;;;;8342531;28;21029;-62
2022/12/12 04:03:01;;;;;;;18.60;8.82;;;;;;;;;;8343258;28;20229;-62
2022/12/12 04:07:05;;;;;;;17.77;9.25;;;;;;;;;;8342828;28;20039;-62
2022/12/12 04:15:25;;;;;;;16.80;8.45;;;;;;;;;;8340298;28;20003;-61
2022/12/12 04:24:13;;;;;;;15.93;8.75;;;;;;;;;;8342619;28;20042;-62
2022/12/12 04:28:13;;;;;;;16.33;8.80;;;;;;;;;;8343650;28;20133;-61
2022/12/12 04:32:36;;;;;;;15.80;8.43;;;;;;;;;;8344659;28;20114;-61
2022/12/12 04:36:36;;;;;;;23.83;10.23;;;;;;;;;;8341875;28;20024;-61
2022/12/12 04:40:39;;;;;;;16.65;8.25;;;;;;;;;;8347071;28;20041;-61
2022/12/12 04:44:41;;;;;;;24.63;11.57;;;;;;;;;;8343580;28;20036;-61
2022/12/12 04:48:45;;;;;;;33.60;12.48;;;;;;;;;;8345328;28;20028;-61
2022/12/12 04:52:46;;;;;;;26.52;10.88;;;;;;;;;;8344532;28;20067;-61
2022/12/12 04:56:52;;;;;;;26.10;10.85;;;;;;;;;;8344157;28;20113;-61
2022/12/12 05:00:57;;;;;;;31.38;11.82;;;;;;;;;;8341387;28;20048;-61
2022/12/12 05:05:01;;;;;;;21.00;9.27;;;;;;;;;;8345490;28;21106;-61
2022/12/12 05:09:01;;;;;;;16.70;8.43;;;;;;;;;;8341394;28;20052;-61
2022/12/12 05:13:02;;;;;;;20.92;10.25;;;;;;;;;;8336164;28;20032;-61
2022/12/12 05:17:05;;;;;;;17.73;9.27;;;;;;;;;;8340432;28;20089;-61
2022/12/12 05:21:05;;;;;;;19.25;9.23;;;;;;;;;;8339003;28;20024;-61
2022/12/12 05:25:05;;;;;;;18.27;8.85;;;;;;;;;;8340258;28;20029;-62
2022/12/12 05:29:06;;;;;;;18.25;9.25;;;;;;;;;;8339030;28;20028;-61
2022/12/12 05:33:06;;;;;;;17.50;9.20;;;;;;;;;;8341487;28;20151;-61
2022/12/12 05:37:06;;;;;;;17.88;7.85;;;;;;;;;;8339866;28;20020;-62
2022/12/12 05:41:07;;;;;;;21.85;9.13;;;;;;;;;;8340392;28;20106;-63
2022/12/12 05:45:07;;;;;;;20.90;10.95;;;;;;;;;;8336752;28;20279;-61
2022/12/12 05:49:08;;;;;;;20.27;9.32;;;;;;;;;;8339185;28;20767;-61
2022/12/12 05:53:08;;;;;;;21.80;9.55;;;;;;;;;;8339106;28;20100;-61
2022/12/12 05:57:08;;;;;;;14.60;9.02;;;;;;;;;;8338636;28;20040;-61
2022/12/12 06:01:09;;;;;;;21.60;10.00;;;;;;;;;;8339434;28;20094;-61
2022/12/12 06:05:09;;;;;;;19.25;9.15;;;;;;;;;;8340159;28;20028;-61
2022/12/12 06:09:09;;;;;;;15.47;9.07;;;;;;;;;;8339135;28;20032;-61
2022/12/12 06:13:09;;;;;;;20.50;8.50;;;;;;;;;;8338933;28;20270;-61
2022/12/12 06:17:11;;;;;;;21.40;7.93;;;;;;;;;;8337284;28;20402;-62
2022/12/12 06:21:11;;;;;;;21.65;8.48;;;;;;;;;;8338033;28;20116;-61
2022/12/12 06:25:12;;;;;;;24.42;9.52;;;;;;;;;;8338851;28;20060;-61
2022/12/12 06:29:13;;;;;;;24.25;8.95;;;;;;;;;;8338629;28;20090;-61
2022/12/12 06:33:13;;;;;;;22.38;10.32;;;;;;;;;;8335057;28;20036;-61
2022/12/12 06:37:14;;;;;;;20.23;8.67;;;;;;;;;;8332558;28;20388;-61
2022/12/12 06:41:14;;;;;;;21.65;9.23;;;;;;;;;;8336776;28;20409;-62
2022/12/12 06:45:14;;;;;;;19.60;8.10;;;;;;;;;;8337727;28;20024;-62
2022/12/12 06:49:15;;;;;;;22.20;8.63;;;;;;;;;;8338904;28;20271;-62
2022/12/12 06:53:15;;;;;;;19.65;8.20;;;;;;;;;;8338729;28;20020;-62
2022/12/12 06:57:15;;;;;;;22.50;8.48;;;;;;;;;;8337116;28;20024;-61
2022/12/12 07:01:20;;;;;;;19.40;8.75;;;;;;;;;;8335941;28;20044;-62
2022/12/12 07:05:20;;;;;;;24.25;8.88;;;;;;;;;;8335190;28;20119;-62
2022/12/12 07:09:20;;;;;;;22.83;7.63;;;;;;;;;;8338628;28;20037;-62
2022/12/12 07:13:21;;;;;;;22.45;8.95;;;;;;;;;;8336696;28;20279;-62
2022/12/12 07:17:21;;;;;;;26.33;7.70;;;;;;;;;;8335359;28;20044;-61
2022/12/12 07:21:21;;;;;;;24.45;8.80;;;;;;;;;;8338211;28;20017;-62
2022/12/12 07:25:22;;;;;;;36.70;9.40;;;;;;;;;;8335237;28;21318;-62
2022/12/12 07:29:22;;;;;;;22.35;7.68;;;;;;;;;;8330823;28;20278;-62
2022/12/12 07:33:22;;;;;;;23.08;8.95;;;;;;;;;;8334865;28;20044;-62
2022/12/12 07:37:22;;;;;;;32.88;9.15;;;;;;;;;;8335270;28;20374;-61
2022/12/12 07:41:23;;;;;;;25.00;8.53;;;;;;;;;;8335657;28;20360;-62
2022/12/12 07:45:23;;;;;;;24.20;9.00;;;;;;;;;;8343205;28;20310;-62
2022/12/12 07:49:23;;;;;;;23.50;8.60;;;;;;;;;;8338877;28;20561;-62
2022/12/12 07:53:23;;;;;;;18.63;8.00;;;;;;;;;;8343991;28;20057;-62
2022/12/12 07:57:24;;;;;;;21.27;8.82;;;;;;;;;;8342240;28;20021;-61
2022/12/12 08:01:25;;;;;;;22.00;8.23;;;;;;;;;;8340118;28;20584;-62
2022/12/12 08:05:25;;;;;;;16.65;8.10;;;;;;;;;;8342856;28;20289;-61
2022/12/12 08:09:25;;;;;;;15.15;7.00;;;;;;;;;;8341286;28;20060;-61
2022/12/12 08:13:25;;;;;;;16.95;7.63;;;;;;;;;;8352276;28;20274;-62
2022/12/12 08:17:26;;;;;;;16.48;6.90;;;;;;;;;;8343786;28;20024;-62
2022/12/12 08:21:26;;;;;;;14.27;7.40;;;;;;;;;;8340858;28;20024;-62
2022/12/12 08:25:27;;;;;;;36.53;8.15;;;;;;;;;;8343154;28;20028;-61
2022/12/12 08:29:27;;;;;;;21.20;7.77;;;;;;;;;;8343988;28;20122;-62
2022/12/12 08:33:27;;;;;;;13.35;6.85;;;;;;;;;;8340999;28;20373;-61
2022/12/12 08:37:27;;;;;;;14.98;7.10;;;;;;;;;;8343313;28;20052;-61
2022/12/12 08:41:27;;;;;;;18.02;7.50;;;;;;;;;;8342126;28;20493;-61
2022/12/12 08:45:28;;;;;;;12.40;6.68;;;;;;;;;;8340539;28;20037;-62
2022/12/12 08:49:28;;;;;;;13.68;7.25;;;;;;;;;;8341618;28;20940;-66
2022/12/12 08:53:28;;;;;;;11.15;6.28;;;;;;;;;;8339829;28;20090;-61
2022/12/12 08:57:28;;;;;;;15.68;8.48;;;;;;;;;;8341998;28;20025;-62
2022/12/12 09:01:28;;;;;;;13.20;7.30;;;;;;;;;;8341038;28;20083;-62
2022/12/12 09:05:29;;;;;;;13.23;8.13;;;;;;;;;;8341506;28;21749;-62
2022/12/12 09:09:29;;;;;;;17.08;7.32;;;;;;;;;;8338308;28;20147;-62
2022/12/12 09:13:29;;;;;;;17.10;8.15;;;;;;;;;;8342389;28;20040;-62
2022/12/12 09:17:29;;;;;;;16.42;7.45;;;;;;;;;;8340245;28;20036;-62
2022/12/12 09:21:30;;;;;;;16.27;6.77;;;;;;;;;;8338698;28;20021;-62
2022/12/12 09:25:30;;;;;;;9.98;5.97;;;;;;;;;;8340773;28;20318;-62
2022/12/12 09:29:30;;;;;;;16.92;7.20;;;;;;;;;;8341710;28;20035;-62
2022/12/12 09:33:30;;;;;;;11.05;6.10;;;;;;;;;;8340872;28;20975;-62
2022/12/12 09:37:31;;;;;;;11.75;5.97;;;;;;;;;;8339250;28;20963;-63
2022/12/12 09:41:31;;;;;;;13.20;6.35;;;;;;;;;;8339289;28;20020;-62
2022/12/12 09:45:34;;;;;;;10.57;5.95;;;;;;;;;;8338018;28;20075;-62
2022/12/12 09:49:48;;;;;;;9.65;6.20;;;;;;;;;;8340816;28;20060;-62
2022/12/12 09:53:50;;;;;;;9.40;6.53;;;;;;;;;;8339288;28;20067;-62
2022/12/12 09:58:17;;;;;;;10.82;6.57;;;;;;;;;;8337714;28;20025;-62
2022/12/12 10:02:32;;;;;;;9.25;5.63;;;;;;;;;;8326532;28;20033;-62
2022/12/12 10:06:38;;;;;;;14.13;6.30;;;;;;;;;;8339141;28;20055;-62
2022/12/12 10:10:39;;;;;;;12.60;7.15;;;;;;;;;;8340085;28;20100;-62
2022/12/12 10:14:49;;;;;;;13.02;7.03;;;;;;;;;;8337114;28;20860;-62
2022/12/12 10:18:50;;;;;;;11.38;6.50;;;;;;;;;;8339048;28;20416;-62
2022/12/12 10:22:54;;;;;;;10.25;6.47;;;;;;;;;;8337636;28;20033;-62
2022/12/12 10:26:56;;;;;;;15.68;6.25;;;;;;;;;;8336652;28;20037;-61
2022/12/12 10:31:15;;;;;;;14.50;6.28;;;;;;;;;;8337861;28;20061;-63
2022/12/12 10:35:16;;;;;;;14.00;6.50;;;;;;;;;;8338312;28;20033;-62
2022/12/12 10:39:34;;;;;;;17.17;6.20;;;;;;;;;;8338307;28;20040;-61
2022/12/12 10:43:40;;;;;;;10.32;6.10;;;;;;;;;;8339103;28;20028;-62
2022/12/12 10:47:41;;;;;;;14.73;6.60;;;;;;;;;;8336680;28;20040;-63
2022/12/12 10:51:42;;;;;;;10.47;6.13;;;;;;;;;;8338513;28;20035;-62
2022/12/12 10:55:50;;;;;;;11.10;6.75;;;;;;;;;;8338575;28;20278;-62
2022/12/12 10:59:50;;;;;;;11.20;6.60;;;;;;;;;;8337246;28;20025;-61
2022/12/12 11:03:52;;;;;;;13.20;6.67;;;;;;;;;;8336483;28;20037;-61
2022/12/12 11:08:06;;;;;;;14.18;5.90;;;;;;;;;;8334278;28;20334;-61
2022/12/12 11:12:09;;;;;;;10.73;5.97;;;;;;;;;;8335172;28;20020;-62
2022/12/12 11:16:16;;;;;;;9.52;5.55;;;;;;;;;;8336681;28;20085;-62
2022/12/12 11:20:17;;;;;;;8.77;5.43;;;;;;;;;;8328862;28;20025;-63
2022/12/12 11:24:18;;;;;;;9.30;5.82;;;;;;;;;;8337853;28;20131;-62
2022/12/12 11:28:21;;;;;;;10.30;5.47;;;;;;;;;;8343915;28;20090;-62
2022/12/12 11:32:24;;;;;;;9.95;5.47;;;;;;;;;;8345260;28;20048;-61
2022/12/12 11:36:36;;;;;;;8.80;5.20;;;;;;;;;;8344905;28;20029;-61
2022/12/12 11:40:37;;;;;;;8.90;5.35;;;;;;;;;;8340891;28;20032;-63
2022/12/12 11:44:37;;;;;;;10.77;5.47;;;;;;;;;;8337891;28;20029;-62
2022/12/12 11:48:43;;;;;;;11.23;5.85;;;;;;;;;;8343853;28;20047;-62
2022/12/12 11:52:44;;;;;;;10.27;5.45;;;;;;;;;;8351175;28;20028;-62
2022/12/12 11:56:57;;;;;;;9.93;5.35;;;;;;;;;;8338158;28;20028;-63
2022/12/12 12:01:14;;;;;;;8.50;5.38;;;;;;;;;;8343356;28;20090;-62
2022/12/12 12:05:15;;;;;;;10.90;5.75;;;;;;;;;;8343598;28;20048;-63
2022/12/12 12:09:15;;;;;;;8.85;5.15;;;;;;;;;;8341868;28;20047;-62
2022/12/12 12:13:21;;;;;;;7.88;5.32;;;;;;;;;;8344813;28;20082;-62
2022/12/12 12:17:21;;;;;;;11.05;5.65;;;;;;;;;;8341053;28;20119;-62
2022/12/12 12:21:40;;;;;;;10.52;5.10;;;;;;;;;;8343460;28;20036;-63
2022/12/12 12:25:52;;;;;;;8.20;4.50;;;;;;;;;;8339832;28;20017;-61
2022/12/12 12:29:55;;;;;;;7.97;4.60;;;;;;;;;;8341642;28;20111;-61
2022/12/12 12:34:11;;;;;;;6.35;4.70;;;;;;;;;;8340354;28;20044;-61
2022/12/12 12:38:18;;;;;;;8.23;5.20;;;;;;;;;;8341688;28;20094;-62
2022/12/12 12:42:30;;;;;;;9.15;5.03;;;;;;;;;;8342979;28;20498;-61
2022/12/12 12:46:36;;;;;;;9.40;5.18;;;;;;;;;;8342068;28;20036;-62
2022/12/12 12:50:40;;;;;;;10.95;5.40;;;;;;;;;;8343791;28;20059;-62
2022/12/12 12:54:44;;;;;;;9.80;5.95;;;;;;;;;;8340912;28;20040;-62
2022/12/12 12:58:46;;;;;;;9.38;6.10;;;;;;;;;;8343480;28;20053;-63
2022/12/12 13:02:52;;;;;;;14.05;7.05;;;;;;;;;;8340521;28;20060;-61
2022/12/12 13:06:57;;;;;;;11.77;6.68;;;;;;;;;;8335967;28;20416;-62
2022/12/12 13:11:01;;;;;;;13.73;7.13;;;;;;;;;;8339222;28;20140;-62
2022/12/12 13:15:05;;;;;;;14.93;7.50;;;;;;;;;;8338361;28;20068;-61
2022/12/12 13:19:09;;;;;;;15.05;7.65;;;;;;;;;;8336335;28;20044;-63
2022/12/12 13:23:13;;;;;;;15.27;8.45;;;;;;;;;;8339636;28;20025;-62
2022/12/12 13:27:19;;;;;;;14.75;8.35;;;;;;;;;;8341960;28;20026;-63
2022/12/12 13:31:25;;;;;;;13.52;8.27;;;;;;;;;;8339429;28;20072;-61
2022/12/12 13:35:30;;;;;;;16.00;8.77;;;;;;;;;;8339617;28;20072;-60
2022/12/12 13:39:33;;;;;;;17.08;10.15;;;;;;;;;;8339822;28;20040;-61
2022/12/12 13:43:33;;;;;;;19.35;10.82;;;;;;;;;;8337833;28;20170;-62
2022/12/12 13:47:33;;;;;;;25.05;10.98;;;;;;;;;;8335854;28;20064;-62
2022/12/12 13:51:33;;;;;;;19.60;11.13;;;;;;;;;;8339963;28;20028;-63
2022/12/12 13:55:34;;;;;;;22.48;11.07;;;;;;;;;;8336466;28;20272;-61
2022/12/12 13:59:53;;;;;;;17.33;10.85;;;;;;;;;;8338070;28;20576;-62
2022/12/12 14:03:54;;;;;;;19.40;11.18;;;;;;;;;;8338169;28;20722;-61
2022/12/12 14:08:00;;;;;;;18.27;10.07;;;;;;;;;;8338600;28;20700;-61
2022/12/12 14:12:04;;;;;;;21.55;11.38;;;;;;;;;;8340110;28;20009;-62
2022/12/12 14:16:05;;;;;;;21.13;11.32;;;;;;;;;;8337695;28;20037;-62
2022/12/12 14:20:06;;;;;;;20.63;11.25;;;;;;;;;;8337666;28;20031;-61
2022/12/12 14:24:25;;;;;;;19.10;10.35;;;;;;;;;;8338802;28;20033;-62
2022/12/12 14:28:29;;;;;;;18.42;9.65;;;;;;;;;;8339608;28;20616;-62
2022/12/12 14:32:41;;;;;;;20.77;10.77;;;;;;;;;;8338168;28;20047;-62
2022/12/12 14:36:44;;;;;;;24.35;11.70;;;;;;;;;;8335284;28;20391;-61
2022/12/12 14:40:46;;;;;;;17.43;10.30;;;;;;;;;;8339640;28;20071;-61
2022/12/12 14:44:47;;;;;;;16.95;9.38;;;;;;;;;;8341326;28;20020;-61
2022/12/12 14:48:47;;;;;;;17.85;9.73;;;;;;;;;;8337404;28;20048;-62
2022/12/12 14:52:49;;;;;;;17.13;8.90;;;;;;;;;;8337790;28;20029;-62
2022/12/12 14:56:50;;;;;;;22.23;11.50;;;;;;;;;;8337174;28;20029;-62
2022/12/12 15:00:53;;;;;;;21.02;11.77;;;;;;;;;;8336154;28;20125;-61
2022/12/12 15:04:58;;;;;;;21.52;13.02;;;;;;;;;;8336835;28;20033;-61
2022/12/12 15:09:09;;;;;;;21.48;12.30;;;;;;;;;;8334655;28;20033;-62
2022/12/12 15:13:19;;;;;;;30.33;17.95;;;;;;;;;;8336515;28;20585;-61
2022/12/12 15:17:25;;;;;;;20.08;12.15;;;;;;;;;;8335271;28;20126;-61
2022/12/12 15:21:30;;;;;;;20.08;11.50;;;;;;;;;;8335333;28;20028;-63
2022/12/12 15:25:32;;;;;;;20.05;11.32;;;;;;;;;;8337521;28;20521;-62
2022/12/12 15:29:34;;;;;;;19.83;11.80;;;;;;;;;;8339463;28;20021;-61
2022/12/12 15:33:36;;;;;;;42.05;20.50;;;;;;;;;;8335850;28;20095;-61
2022/12/12 15:37:37;;;;;;;22.20;11.80;;;;;;;;;;8338504;28;20060;-61
2022/12/12 15:41:37;;;;;;;16.23;9.95;;;;;;;;;;8338578;28;20025;-62
2022/12/12 15:45:39;;;;;;;17.60;10.23;;;;;;;;;;8334506;28;20047;-62
2022/12/12 15:49:43;;;;;;;16.33;9.30;;;;;;;;;;8339222;28;20282;-62
2022/12/12 15:53:48;;;;;;;21.33;10.95;;;;;;;;;;8337125;28;20063;-61
2022/12/12 15:57:50;;;;;;;23.13;12.07;;;;;;;;;;8336185;28;20494;-62
2022/12/12 16:01:50;;;;;;;20.83;11.48;;;;;;;;;;8335217;28;20044;-62
2022/12/12 16:06:02;;;;;;;17.73;10.37;;;;;;;;;;8335947;28;21046;-62
2022/12/12 16:10:08;;;;;;;17.13;10.98;;;;;;;;;;8337730;28;20745;-62
2022/12/12 16:14:41;;;;;;;24.92;15.02;;;;;;;;;;8341606;28;20764;-62
2022/12/12 16:18:41;;;;;;;24.27;13.93;;;;;;;;;;8308247;28;20033;-62
2022/12/12 16:22:46;;;;;;;28.20;16.60;;;;;;;;;;8343413;28;20021;-61
2022/12/12 16:26:46;;;;;;;;;;;;;;;;;;8343356;28;20036;-62
2022/12/12 16:30:55;;;;;;;28.70;14.10;;;;;;;;;;8340828;28;20504;-62
2022/12/12 16:34:55;;;;;;;35.17;20.58;;;;;;;;;;8342315;28;20039;-62
2022/12/12 16:38:55;;;;;;;35.10;19.80;;;;;;;;;;8342276;28;20031;-62
2022/12/12 16:43:00;;;;;;;32.13;17.88;;;;;;;;;;8344465;28;20120;-60
2022/12/12 16:47:00;;;;;;;28.25;16.90;;;;;;;;;;8341983;28;20043;-62
2022/12/12 16:51:02;;;;;;;26.75;15.13;;;;;;;;;;8340468;28;20029;-62
2022/12/12 16:55:07;;;;;;;29.73;16.70;;;;;;;;;;8338064;28;20039;-62
2022/12/12 16:59:08;;;;;;;26.70;16.42;;;;;;;;;;8337238;28;20028;-61
2022/12/12 17:03:11;;;;;;;39.45;20.42;;;;;;;;;;8339002;28;20037;-62
2022/12/12 17:07:11;;;;;;;39.22;22.92;;;;;;;;;;8340985;28;20149;-61
2022/12/12 17:11:11;;;;;;;29.23;17.23;;;;;;;;;;8340877;28;20128;-62
2022/12/12 17:15:15;;;;;;;25.77;15.10;;;;;;;;;;8340596;28;20025;-62
2022/12/12 17:19:15;;;;;;;26.83;14.95;;;;;;;;;;8341012;28;20035;-62
2022/12/12 17:23:17;;;;;;;26.73;14.27;;;;;;;;;;8339553;28;20033;-62
2022/12/12 17:27:17;;;;;;;27.85;13.85;;;;;;;;;;8340125;28;20032;-62
2022/12/12 17:31:18;;;;;;;21.15;12.45;;;;;;;;;;8340901;28;20071;-62
2022/12/12 17:35:18;;;;;;;22.25;12.48;;;;;;;;;;8339906;28;20279;-62
2022/12/12 17:39:18;;;;;;;19.33;12.00;;;;;;;;;;8340692;28;20020;-62
2022/12/12 17:43:18;;;;;;;20.38;12.20;;;;;;;;;;8338171;28;20024;-61
2022/12/12 17:47:18;;;;;;;21.13;12.80;;;;;;;;;;8336573;28;20041;-61
2022/12/12 17:51:20;;;;;;;20.30;11.75;;;;;;;;;;8338321;28;20335;-61
2022/12/12 17:55:20;;;;;;;21.05;11.98;;;;;;;;;;8338818;28;20078;-60
2022/12/12 17:59:21;;;;;;;20.85;13.20;;;;;;;;;;8337881;28;20135;-62
2022/12/12 18:03:21;;;;;;;23.50;14.55;;;;;;;;;;8339174;28;20048;-62
2022/12/12 18:07:21;;;;;;;29.40;14.38;;;;;;;;;;8335898;28;20035;-62
2022/12/12 18:11:23;;;;;;;32.43;18.03;;;;;;;;;;8335152;28;20025;-62
2022/12/12 18:15:24;;;;;;;62.08;24.63;;;;;;;;;;8329759;28;20259;-60
2022/12/12 18:19:26;;;;;;;45.80;20.52;;;;;;;;;;8333935;28;20023;-62
2022/12/12 18:23:26;;;;;;;43.70;20.48;;;;;;;;;;8331658;28;20029;-60
2022/12/12 18:27:26;;;;;;;41.40;19.40;;;;;;;;;;8333651;28;20036;-62
2022/12/12 18:31:27;;;;;;;43.03;19.50;;;;;;;;;;8330360;28;20384;-61
2022/12/12 18:35:28;;;;;;;34.75;16.80;;;;;;;;;;8331381;28;20283;-61
2022/12/12 18:39:28;;;;;;;35.75;18.08;;;;;;;;;;8332799;28;20023;-61
2022/12/12 18:43:30;;;;;;;42.13;19.73;;;;;;;;;;8333581;28;20028;-61
2022/12/12 18:47:30;;;;;;;34.67;17.63;;;;;;;;;;8334841;28;20438;-61
2022/12/12 18:51:31;;;;;;;36.00;17.27;;;;;;;;;;8329478;28;20012;-62
2022/12/12 18:55:33;;;;;;;35.30;17.58;;;;;;;;;;8330578;28;20409;-62
2022/12/12 18:59:33;;;;;;;35.13;20.05;;;;;;;;;;8333242;28;20060;-62
2022/12/12 19:03:34;;;;;;;46.00;21.45;;;;;;;;;;8329188;28;20036;-61
2022/12/12 19:07:34;;;;;;;37.90;21.00;;;;;;;;;;8332714;28;20023;-62
2022/12/12 19:11:37;;;;;;;35.13;19.23;;;;;;;;;;8332814;28;20116;-61
2022/12/12 19:15:37;;;;;;;38.50;18.92;;;;;;;;;;8334352;28;20131;-62
2022/12/12 19:19:38;;;;;;;37.40;19.38;;;;;;;;;;8334067;28;20320;-62
2022/12/12 19:23:38;;;;;;;40.17;19.75;;;;;;;;;;8333764;28;20795;-66
2022/12/12 19:27:40;;;;;;;40.13;19.60;;;;;;;;;;8334196;28;20029;-62
2022/12/12 19:31:40;;;;;;;43.25;22.88;;;;;;;;;;8332131;28;20831;-62
2022/12/12 19:35:40;;;;;;;41.08;21.48;;;;;;;;;;8331590;28;20063;-62
2022/12/12 19:39:40;;;;;;;43.57;21.87;;;;;;;;;;8330649;28;20024;-62
2022/12/12 19:43:42;;;;;;;37.35;18.85;;;;;;;;;;8332784;28;20316;-62
2022/12/12 19:47:42;;;;;;;40.67;20.10;;;;;;;;;;8337500;28;20607;-62
2022/12/12 19:51:44;;;;;;;38.17;20.40;;;;;;;;;;8340033;28;20056;-62
2022/12/12 19:55:45;;;;;;;35.08;18.30;;;;;;;;;;8336738;28;20782;-62
2022/12/12 19:59:47;;;;;;;37.30;19.23;;;;;;;;;;8337945;28;20036;-61
2022/12/12 20:03:49;;;;;;;33.10;17.23;;;;;;;;;;8338038;28;20136;-62
2022/12/12 20:07:49;;;;;;;32.63;16.58;;;;;;;;;;8333508;28;20036;-62
2022/12/12 20:11:49;;;;;;;38.22;18.52;;;;;;;;;;8337987;28;20070;-62
2022/12/12 20:15:50;;;;;;;29.20;16.58;;;;;;;;;;8334292;28;20139;-67
2022/12/12 20:19:50;;;;;;;26.83;15.60;;;;;;;;;;8339232;28;20029;-62
2022/12/12 20:23:51;;;;;;;32.15;16.88;;;;;;;;;;8338542;28;20092;-62
2022/12/12 20:27:52;;;;;;;23.98;15.10;;;;;;;;;;8338319;28;20287;-62
2022/12/12 20:31:52;;;;;;;27.02;14.95;;;;;;;;;;8338778;28;20041;-62
2022/12/12 20:35:52;;;;;;;31.83;14.37;;;;;;;;;;8338357;28;20032;-62
2022/12/12 20:39:53;;;;;;;27.27;15.10;;;;;;;;;;8337947;28;20325;-63
2022/12/12 20:43:53;;;;;;;24.57;13.67;;;;;;;;;;8347418;28;20234;-62
2022/12/12 20:47:54;;;;;;;25.85;14.70;;;;;;;;;;8338606;28;20284;-62
2022/12/12 20:51:56;;;;;;;27.87;14.87;;;;;;;;;;8339112;28;20025;-62
2022/12/12 20:56:00;;;;;;;24.27;14.35;;;;;;;;;;8336978;28;20276;-62
2022/12/12 21:00:02;;;;;;;;;;;;;;;;;;8338152;28;20039;-61
2022/12/12 21:04:03;;;;;;;27.08;15.70;;;;;;;;;;8336476;28;19917;-62
2022/12/12 21:08:04;;;;;;;32.63;15.00;;;;;;;;;;8339159;28;20024;-62
2022/12/12 21:12:04;;;;;;;23.53;13.70;;;;;;;;;;8339078;28;20048;-62
2022/12/12 21:16:07;;;;;;;25.60;14.05;;;;;;;;;;8331611;28;20398;-61
2022/12/12 21:20:08;;;;;;;25.43;13.97;;;;;;;;;;8338418;28;20060;-62
2022/12/12 21:24:12;;;;;;;25.03;14.33;;;;;;;;;;8334724;28;20021;-62
2022/12/12 21:28:12;;;;;;;25.10;14.18;;;;;;;;;;8338001;28;20289;-62
2022/12/12 21:32:12;;;;;;;25.90;14.10;;;;;;;;;;8332939;28;20135;-62
2022/12/12 21:36:13;;;;;;;27.23;14.60;;;;;;;;;;8330314;28;20025;-62
2022/12/12 21:40:14;;;;;;;27.38;14.60;;;;;;;;;;8336540;28;20151;-61
2022/12/12 21:44:14;;;;;;;26.30;14.18;;;;;;;;;;8335951;28;20844;-62
2022/12/12 21:48:14;;;;;;;25.23;13.88;;;;;;;;;;8333496;28;20036;-62
2022/12/12 21:52:15;;;;;;;22.63;11.87;;;;;;;;;;8335862;28;20025;-62
2022/12/12 21:56:16;;;;;;;22.92;13.18;;;;;;;;;;8332478;28;20306;-62
2022/12/12 22:00:16;;;;;;;27.02;14.02;;;;;;;;;;8328855;28;20028;-62
2022/12/12 22:04:17;;;;;;;26.85;12.90;;;;;;;;;;8333319;28;21085;-62
2022/12/12 22:08:18;;;;;;;25.75;13.52;;;;;;;;;;8333294;28;20068;-61
2022/12/12 22:12:18;;;;;;;25.90;13.98;;;;;;;;;;8334401;28;20024;-61
2022/12/12 22:16:18;;;;;;;22.55;12.75;;;;;;;;;;8328068;28;20148;-61
2022/12/12 22:20:19;;;;;;;24.90;13.48;;;;;;;;;;8330203;28;20029;-62
2022/12/12 22:24:19;;;;;;;20.67;12.70;;;;;;;;;;8324170;28;20032;-61
2022/12/12 22:28:19;;;;;;;22.48;12.15;;;;;;;;;;8335845;28;20937;-62
2022/12/12 22:32:20;;;;;;;23.58;12.77;;;;;;;;;;8334857;28;20040;-62
2022/12/12 22:36:23;;;;;;;22.92;12.45;;;;;;;;;;8333668;28;20028;-62
2022/12/12 22:40:23;;;;;;;21.08;12.00;;;;;;;;;;8330331;28;20066;-61
2022/12/12 22:44:24;;;;;;;20.33;11.45;;;;;;;;;;8332132;28;20033;-62
2022/12/12 22:48:25;;;;;;;21.67;12.48;;;;;;;;;;8327363;28;20482;-61
2022/12/12 22:52:27;;;;;;;22.05;12.40;;;;;;;;;;8333516;28;20029;-61
2022/12/12 22:56:28;;;;;;;27.42;14.05;;;;;;;;;;8345155;28;20734;-62
2022/12/12 23:00:28;;;;;;;24.40;12.98;;;;;;;;;;8327493;28;20050;-61
2022/12/12 23:04:31;;;;;;;22.47;12.40;;;;;;;;;;8328821;28;20815;-61
2022/12/12 23:08:32;;;;;;;22.77;12.80;;;;;;;;;;8332684;28;20317;-61
2022/12/12 23:12:32;;;;;;;23.35;12.57;;;;;;;;;;8332311;28;20028;-61
2022/12/12 23:16:36;;;;;;;19.35;11.18;;;;;;;;;;8331490;28;20120;-60
2022/12/12 23:20:36;;;;;;;21.63;12.05;;;;;;;;;;8334961;28;20372;-60
2022/12/12 23:24:38;;;;;;;24.08;13.43;;;;;;;;;;8344479;28;20041;-61
2022/12/12 23:28:39;;;;;;;25.23;12.60;;;;;;;;;;8340661;28;20020;-62
2022/12/12 23:32:39;;;;;;;22.00;11.90;;;;;;;;;;8340244;28;20131;-61
2022/12/12 23:36:39;;;;;;;21.10;12.43;;;;;;;;;;8336743;28;20040;-61
2022/12/12 23:40:40;;;;;;;20.27;12.13;;;;;;;;;;8340935;28;20175;-62
2022/12/12 23:44:40;;;;;;;20.42;12.38;;;;;;;;;;8339194;28;20025;-60
2022/12/12 23:48:40;;;;;;;22.25;12.35;;;;;;;;;;8337179;28;20138;-61
2022/12/12 23:52:40;;;;;;;20.95;12.25;;;;;;;;;;8341325;28;20021;-61
2022/12/12 23:56:41;;;;;;;22.45;12.32;;;;;;;;;;8338194;28;20021;-61
